createdAt,value
2023-01-11T00:00:38.338Z,149878.19
2023-01-11T00:03:05.559Z,149888.28
2023-01-11T00:05:31.470Z,149894.56
2023-01-11T00:07:58.132Z,149895.81
2023-01-11T00:10:24.027Z,149912.19
2023-01-11T00:12:49.841Z,149923.56
2023-01-11T00:15:16.305Z,149917.28
2023-01-11T00:17:42.274Z,149939.94
2023-01-11T00:20:09.832Z,149929.84
2023-01-11T00:22:36.077Z,149934.91
2023-01-11T00:25:02.250Z,149942.47
2023-01-11T00:27:28.218Z,149943.72
2023-01-11T00:29:54.095Z,149948.75
2023-01-11T00:32:20.125Z,149955.06
2023-01-11T00:34:45.994Z,149980.25
2023-01-11T00:37:11.851Z,149977.75
2023-01-11T00:39:37.690Z,149967.66
2023-01-11T00:42:22.057Z,149965.13
2023-01-11T00:45:06.607Z,149976.50
2023-01-11T00:47:50.956Z,149977.75
2023-01-11T00:50:16.938Z,149963.88
2023-01-11T00:52:42.749Z,149981.53
2023-01-11T00:55:08.826Z,149973.97
2023-01-11T00:57:34.717Z,149966.38
2023-01-11T01:00:01.280Z,149977.75
2023-01-11T01:02:27.187Z,149967.66
2023-01-11T01:04:53.136Z,149968.94
2023-01-11T01:07:18.963Z,149963.88
2023-01-11T01:09:44.783Z,149976.50
2023-01-11T01:12:12.137Z,149980.25
2023-01-11T01:14:38.419Z,149985.28
2023-01-11T01:17:06.863Z,150009.28
2023-01-11T01:19:35.618Z,150018.06
2023-01-11T01:22:01.545Z,150005.50
2023-01-11T01:24:28.535Z,150018.06
2023-01-11T01:26:55.549Z,150013.03
2023-01-11T01:29:21.376Z,150026.91
2023-01-11T01:31:47.283Z,150024.41
2023-01-11T01:34:13.459Z,150038.22
2023-01-11T01:36:39.699Z,150021.88
2023-01-11T01:39:06.742Z,150036.97
2023-01-11T01:41:33.620Z,150063.47
2023-01-11T01:44:01.924Z,150033.19
2023-01-11T01:46:30.272Z,150043.31
2023-01-11T01:49:01.235Z,150044.56
2023-01-11T01:51:41.182Z,150030.69
2023-01-11T01:54:11.652Z,150024.41
2023-01-11T01:56:45.914Z,150029.44
2023-01-11T01:59:15.732Z,150030.69
2023-01-11T02:01:47.839Z,150033.19
2023-01-11T02:04:21.303Z,150044.56
2023-01-11T02:06:47.655Z,150050.84
2023-01-11T02:09:26.038Z,150058.44
2023-01-11T02:11:54.830Z,150063.47
2023-01-11T02:14:21.506Z,150076.09
2023-01-11T02:16:47.362Z,150055.88
2023-01-11T02:19:50.408Z,150086.16
2023-01-11T02:22:35.775Z,150079.88
2023-01-11T02:25:24.232Z,150078.59
2023-01-11T02:28:12.656Z,150083.63
2023-01-11T02:30:44.506Z,150098.78
2023-01-11T02:33:19.160Z,150089.91
2023-01-11T02:35:47.817Z,150087.41
2023-01-11T02:38:22.831Z,150098.78
2023-01-11T02:41:08.518Z,150082.38
2023-01-11T02:44:13.442Z,150086.16
2023-01-11T02:46:59.906Z,150089.91
2023-01-11T02:49:40.157Z,150107.56
2023-01-11T02:52:13.150Z,150107.56
2023-01-11T02:54:42.889Z,150103.81
2023-01-11T02:57:10.421Z,150107.56
2023-01-11T02:59:37.230Z,150111.41
2023-01-11T03:02:03.384Z,150126.47
2023-01-11T03:04:31.620Z,150139.09
2023-01-11T03:07:32.493Z,150135.34
2023-01-11T03:10:10.145Z,150135.34
2023-01-11T03:12:58.771Z,150134.06
2023-01-11T03:15:33.591Z,150149.22
2023-01-11T03:18:06.005Z,150139.09
2023-01-11T03:20:41.602Z,150147.97
2023-01-11T03:23:21.217Z,150168.13
2023-01-11T03:26:24.243Z,150169.38
2023-01-11T03:28:54.603Z,150173.16
2023-01-11T03:31:29.178Z,150203.44
2023-01-11T03:34:22.251Z,150190.81
2023-01-11T03:36:56.061Z,150190.81
2023-01-11T03:39:33.307Z,150193.34
2023-01-11T03:42:02.196Z,150194.59
2023-01-11T03:44:34.901Z,150195.84
2023-01-11T03:47:06.249Z,150197.09
2023-01-11T03:49:42.717Z,150197.09
2023-01-11T03:52:11.809Z,150213.50
2023-01-11T03:54:39.851Z,150228.66
2023-01-11T03:57:28.808Z,150232.41
2023-01-11T03:59:54.767Z,150229.91
2023-01-11T04:02:24.448Z,150213.50
2023-01-11T04:04:50.995Z,150233.69
2023-01-11T04:07:18.105Z,150237.50
2023-01-11T04:09:45.131Z,150224.88
2023-01-11T04:12:11.077Z,150227.41
2023-01-11T04:14:37.129Z,150234.94
2023-01-11T04:17:04.243Z,150240.03
2023-01-11T04:19:30.190Z,150240.03
2023-01-11T04:21:56.301Z,150243.78
2023-01-11T04:24:22.459Z,150251.34
2023-01-11T04:26:48.347Z,150262.72
2023-01-11T04:29:14.300Z,150262.72
2023-01-11T04:31:40.146Z,150265.22
2023-01-11T04:34:06.228Z,150295.56
2023-01-11T04:36:32.874Z,150282.94
2023-01-11T04:38:59.272Z,150274.09
2023-01-11T04:41:43.913Z,150298.09
2023-01-11T04:44:10.079Z,150304.38
2023-01-11T04:46:35.966Z,150318.25
2023-01-11T04:49:02.531Z,150309.47
2023-01-11T04:51:28.280Z,150335.94
2023-01-11T04:53:54.125Z,150334.66
2023-01-11T04:56:20.027Z,150338.44
2023-01-11T04:58:46.001Z,150335.94
2023-01-11T05:01:18.128Z,150353.59
2023-01-11T05:03:44.917Z,150358.63
2023-01-11T05:06:11.694Z,150373.78
2023-01-11T05:08:37.568Z,150352.34
2023-01-11T05:11:06.267Z,150371.25
2023-01-11T05:13:41.511Z,150367.50
2023-01-11T05:16:17.927Z,150356.09
2023-01-11T05:18:55.978Z,150359.88
2023-01-11T05:21:23.828Z,150372.53
2023-01-11T05:23:49.994Z,150359.88
2023-01-11T05:26:18.926Z,150371.25
2023-01-11T05:28:45.896Z,150376.28
2023-01-11T05:31:12.558Z,150376.28
2023-01-11T05:33:38.488Z,150404.06
2023-01-11T05:36:11.663Z,150391.44
2023-01-11T05:38:37.495Z,150396.47
2023-01-11T05:41:06.368Z,150388.94
2023-01-11T05:43:33.235Z,150404.06
2023-01-11T05:46:00.331Z,150410.38
2023-01-11T05:48:26.357Z,150416.72
2023-01-11T05:50:55.779Z,150412.88
2023-01-11T05:53:23.383Z,150426.78
2023-01-11T05:55:57.633Z,150424.25
2023-01-11T05:58:25.930Z,150453.31
2023-01-11T06:00:55.606Z,150438.16
2023-01-11T06:03:23.623Z,150433.06
2023-01-11T06:05:50.212Z,150430.56
2023-01-11T06:08:16.370Z,150448.22
2023-01-11T06:10:42.915Z,150445.72
2023-01-11T06:13:26.890Z,150428.03
2023-01-11T06:15:54.323Z,150462.13
2023-01-11T06:18:20.459Z,150503.75
2023-01-11T06:20:50.785Z,150482.31
2023-01-11T06:23:16.893Z,150486.09
2023-01-11T06:25:45.309Z,150464.63
2023-01-11T06:28:11.551Z,150486.09
2023-01-11T06:30:37.760Z,150469.69
2023-01-11T06:33:06.483Z,150472.25
2023-01-11T06:35:42.709Z,150497.47
2023-01-11T06:38:10.888Z,150493.69
2023-01-11T06:40:38.255Z,150474.75
2023-01-11T06:43:04.794Z,150506.34
2023-01-11T06:45:31.048Z,150515.16
2023-01-11T06:47:57.470Z,150522.69
2023-01-11T06:50:23.934Z,150515.16
2023-01-11T06:52:57.820Z,150520.19
2023-01-11T06:55:25.935Z,150516.41
2023-01-11T06:57:51.886Z,150512.63
2023-01-11T07:00:18.387Z,150536.59
2023-01-11T07:02:45.453Z,150539.13
2023-01-11T07:05:12.548Z,150539.13
2023-01-11T07:07:39.743Z,150534.06
2023-01-11T07:10:08.465Z,150555.53
2023-01-11T07:12:35.362Z,150554.28
2023-01-11T07:15:02.412Z,150589.63
2023-01-11T07:17:28.290Z,150575.72
2023-01-11T07:19:54.096Z,150585.84
2023-01-11T07:22:21.736Z,150587.13
2023-01-11T07:24:48.562Z,150571.94
2023-01-11T07:27:14.489Z,150574.47
2023-01-11T07:29:40.333Z,150566.91
2023-01-11T07:32:07.540Z,150573.22
2023-01-11T07:34:33.898Z,150588.38
2023-01-11T07:37:00.014Z,150597.22
2023-01-11T07:39:38.517Z,150595.97
2023-01-11T07:42:29.112Z,150588.38
2023-01-11T07:44:54.916Z,150595.97
2023-01-11T07:47:21.182Z,150597.22
2023-01-11T07:49:47.086Z,150587.13
2023-01-11T07:52:13.181Z,150582.06
2023-01-11T07:54:39.004Z,150575.72
2023-01-11T07:57:05.206Z,150579.56
2023-01-11T07:59:31.140Z,150590.88
2023-01-11T08:01:56.936Z,150588.38
2023-01-11T08:04:22.771Z,150617.44
2023-01-11T08:06:48.624Z,150654.06
2023-01-11T08:09:14.471Z,150630.03
2023-01-11T08:11:59.039Z,150618.69
2023-01-11T08:14:40.019Z,150640.16
2023-01-11T08:17:14.643Z,150623.72
2023-01-11T08:19:41.539Z,150622.47
2023-01-11T08:22:07.833Z,150635.13
2023-01-11T08:24:36.433Z,150647.72
2023-01-11T08:27:03.687Z,150659.09
2023-01-11T08:29:30.074Z,150647.72
2023-01-11T08:31:56.412Z,150614.91
2023-01-11T08:34:22.620Z,150618.69
2023-01-11T08:36:48.512Z,150628.75
2023-01-11T08:39:14.356Z,150645.19
2023-01-11T08:41:40.240Z,150666.66
2023-01-11T08:44:06.205Z,150654.06
2023-01-11T08:46:33.506Z,150673.00
2023-01-11T08:49:02.356Z,150671.75
2023-01-11T08:51:29.019Z,150689.41
2023-01-11T08:53:55.106Z,150674.25
2023-01-11T08:56:20.920Z,150671.75
2023-01-11T08:58:46.809Z,150669.22
2023-01-11T09:01:12.676Z,150690.69
2023-01-11T09:03:38.552Z,150694.47
2023-01-11T09:06:04.569Z,150681.81
2023-01-11T09:08:30.369Z,150688.16
2023-01-11T09:10:58.950Z,150679.28
2023-01-11T09:13:25.906Z,150680.56
2023-01-11T09:15:58.917Z,150681.81
2023-01-11T09:18:26.224Z,150683.06
2023-01-11T09:20:53.506Z,150685.59
2023-01-11T09:23:19.356Z,150680.56
2023-01-11T09:25:45.156Z,150689.41
2023-01-11T09:28:10.995Z,150666.66
2023-01-11T09:30:38.434Z,150669.22
2023-01-11T09:33:06.203Z,150671.75
2023-01-11T09:35:33.188Z,150703.28
2023-01-11T09:37:59.227Z,150652.78
2023-01-11T09:40:52.529Z,150661.59
2023-01-11T09:43:23.953Z,150666.66
2023-01-11T09:45:52.283Z,150679.28
2023-01-11T09:48:28.220Z,150686.91
2023-01-11T09:50:55.041Z,150669.22
2023-01-11T09:53:31.288Z,150655.31
2023-01-11T09:56:00.647Z,150667.97
2023-01-11T09:59:00.320Z,150674.25
2023-01-11T10:01:35.271Z,150648.97
2023-01-11T10:04:38.090Z,150638.91
2023-01-11T10:07:25.686Z,150598.50
2023-01-11T10:18:23.431Z,150491.19
2023-01-11T10:19:39.781Z,150484.84
2023-01-11T10:22:23.974Z,150491.19
2023-01-11T10:24:57.338Z,150484.84
2023-01-11T10:27:38.214Z,150496.22
2023-01-11T10:30:31.367Z,150525.25
2023-01-11T10:33:22.401Z,150531.56
2023-01-11T10:36:20.666Z,150507.59
2023-01-11T10:39:20.152Z,150550.50
2023-01-11T10:42:01.697Z,150523.97
2023-01-11T10:44:37.656Z,150518.91
2023-01-11T10:47:15.665Z,150540.38
2023-01-11T10:49:55.196Z,150520.19
2023-01-11T10:52:33.433Z,150541.63
2023-01-11T10:55:02.208Z,150534.06
2023-01-11T10:58:00.158Z,150563.13
2023-01-11T11:00:38.585Z,150555.53
2023-01-11T11:03:07.864Z,150518.91
2023-01-11T11:05:45.728Z,150525.25
2023-01-11T11:08:35.187Z,150530.31
2023-01-11T11:11:08.535Z,150520.19
2023-01-11T11:13:43.523Z,150515.16
2023-01-11T11:16:18.548Z,150520.19
2023-01-11T11:18:44.455Z,150542.94
2023-01-11T11:21:21.220Z,150544.19
2023-01-11T11:23:54.828Z,150518.91
2023-01-11T11:26:26.625Z,150529.03
2023-01-11T11:29:08.056Z,150534.06
2023-01-11T11:31:37.200Z,150513.88
2023-01-11T11:34:12.907Z,150494.94
2023-01-11T11:36:44.647Z,150520.19
2023-01-11T11:39:24.397Z,150515.16
2023-01-11T11:41:52.401Z,150517.66
2023-01-11T11:44:24.111Z,150500.00
2023-01-11T11:47:13.571Z,150507.59
2023-01-11T11:49:40.120Z,150515.16
2023-01-11T11:52:06.717Z,150523.97
2023-01-11T11:54:35.507Z,150501.25
2023-01-11T11:57:23.839Z,150507.59
2023-01-11T12:00:04.331Z,150515.16
2023-01-11T12:02:32.703Z,150551.75
2023-01-11T12:05:04.452Z,150505.03
2023-01-11T12:07:40.443Z,150486.09
2023-01-11T12:10:19.067Z,150515.16
2023-01-11T12:12:48.711Z,150517.66
2023-01-11T12:15:14.460Z,150508.84
2023-01-11T12:17:40.904Z,150515.16
2023-01-11T12:20:18.596Z,150517.66
2023-01-11T12:22:44.438Z,150531.56
2023-01-11T12:25:13.172Z,150551.75
2023-01-11T12:27:54.249Z,150515.16
2023-01-11T12:30:38.725Z,150476.03
2023-01-11T12:33:23.455Z,150467.16
2023-01-11T12:36:04.703Z,150492.44
2023-01-11T12:38:42.223Z,150468.41
2023-01-11T12:41:50.664Z,150491.19
2023-01-11T12:45:11.424Z,150434.38
2023-01-11T12:48:01.027Z,150454.56
2023-01-11T12:50:33.112Z,150458.34
2023-01-11T12:53:14.618Z,150487.34
2023-01-11T12:55:49.876Z,150482.31
2023-01-11T12:58:21.702Z,150457.09
2023-01-11T13:01:11.968Z,150503.75
2023-01-11T13:04:09.562Z,150515.16
2023-01-11T13:06:42.082Z,150511.38
2023-01-11T13:09:45.859Z,150470.97
2023-01-11T13:12:20.510Z,150438.16
2023-01-11T13:14:46.310Z,150423.00
2023-01-11T13:17:27.999Z,150400.31
2023-01-11T13:19:59.842Z,150387.66
2023-01-11T13:22:32.760Z,150387.66
2023-01-11T13:25:02.225Z,150405.34
2023-01-11T13:27:31.060Z,150380.06
2023-01-11T13:30:00.351Z,150361.16
2023-01-11T13:32:37.409Z,150363.72
2023-01-11T13:35:15.900Z,150361.16
2023-01-11T13:37:56.245Z,150344.78
2023-01-11T13:40:24.118Z,150361.16
2023-01-11T13:42:58.634Z,150349.81
2023-01-11T13:45:31.204Z,150372.53
2023-01-11T13:48:05.288Z,150385.16
2023-01-11T13:51:01.931Z,150419.22
2023-01-11T13:53:52.282Z,150493.69
2023-01-11T13:56:41.036Z,150492.44
2023-01-11T13:59:09.964Z,150529.03
2023-01-11T14:01:42.460Z,150542.94
2023-01-11T14:04:21.763Z,150551.75
2023-01-11T14:07:18.051Z,150570.69
2023-01-11T14:10:21.380Z,150539.13
2023-01-11T14:12:56.204Z,150516.41
2023-01-11T14:15:40.368Z,150534.06
2023-01-11T14:18:25.085Z,150502.50
2023-01-11T14:21:01.063Z,150459.59
2023-01-11T14:23:35.543Z,150433.06
2023-01-11T14:26:43.734Z,150378.81
2023-01-11T14:29:47.077Z,150375.03
2023-01-11T14:32:27.993Z,150349.81
2023-01-11T14:35:11.279Z,150371.25
2023-01-11T14:38:25.152Z,150323.28
2023-01-11T14:41:15.476Z,150359.88
2023-01-11T14:44:15.768Z,150353.59
2023-01-11T14:47:08.562Z,150373.78
2023-01-11T14:50:02.789Z,150410.38
2023-01-11T14:52:39.652Z,150410.38
2023-01-11T14:55:15.643Z,150428.03
2023-01-11T14:57:44.154Z,150446.97
2023-01-11T15:00:18.924Z,150436.91
2023-01-11T15:02:45.929Z,150419.22
2023-01-11T15:05:30.397Z,150419.22
2023-01-11T15:08:14.737Z,150417.97
2023-01-11T15:10:46.155Z,150417.97
2023-01-11T15:13:17.430Z,150440.69
2023-01-11T15:16:02.305Z,150459.59
2023-01-11T15:18:29.357Z,150421.75
2023-01-11T15:21:01.783Z,150402.81
2023-01-11T15:23:33.377Z,150392.69
2023-01-11T15:26:02.561Z,150378.81
2023-01-11T15:28:39.529Z,150386.41
2023-01-11T15:31:06.054Z,150388.94
2023-01-11T15:33:47.420Z,150399.03
2023-01-11T15:36:13.767Z,150382.63
2023-01-11T15:38:51.501Z,150368.75
2023-01-11T15:41:44.659Z,150364.97
2023-01-11T15:44:44.979Z,150353.59
2023-01-11T15:47:35.033Z,150330.91
2023-01-11T15:50:09.727Z,150354.84
2023-01-11T15:53:03.696Z,150359.88
2023-01-11T15:55:35.789Z,150315.75
2023-01-11T15:58:14.469Z,150342.22
2023-01-11T16:00:46.490Z,150295.56
2023-01-11T16:03:34.459Z,150289.22
2023-01-11T16:06:20.448Z,150301.84
2023-01-11T16:08:52.117Z,150279.13
2023-01-11T16:11:35.651Z,150285.44
2023-01-11T16:14:20.382Z,150260.19
2023-01-11T16:16:51.902Z,150265.22
2023-01-11T16:19:20.326Z,150275.34
2023-01-11T16:21:50.024Z,150284.19
2023-01-11T16:24:21.874Z,150275.34
2023-01-11T16:26:57.999Z,150290.47
2023-01-11T16:29:28.818Z,150289.22
2023-01-11T16:32:03.919Z,150289.22
2023-01-11T16:34:40.242Z,150291.78
2023-01-11T16:37:40.146Z,150286.72
2023-01-11T16:40:11.830Z,150245.06
2023-01-11T16:42:46.578Z,150240.03
2023-01-11T16:45:18.093Z,150222.34
2023-01-11T16:48:09.771Z,150194.59
2023-01-11T16:50:36.173Z,150200.88
2023-01-11T16:53:04.317Z,150219.84
2023-01-11T16:55:39.371Z,150229.91
2023-01-11T16:58:19.420Z,150261.44
2023-01-11T17:00:56.456Z,150252.59
2023-01-11T17:03:24.818Z,150236.19
2023-01-11T17:05:54.956Z,150234.94
2023-01-11T17:08:32.293Z,150242.53
2023-01-11T17:11:04.065Z,150248.81
2023-01-11T17:13:53.564Z,150266.50
2023-01-11T17:16:31.420Z,150284.19
2023-01-11T17:19:08.642Z,150240.03
2023-01-11T17:21:34.909Z,150269.00
2023-01-11T17:24:03.618Z,150270.25
2023-01-11T17:26:48.493Z,150275.34
2023-01-11T17:29:27.707Z,150269.00
2023-01-11T17:31:55.709Z,150247.56
2023-01-11T17:34:36.418Z,150233.69
2023-01-11T17:37:10.114Z,150236.19
2023-01-11T17:39:39.347Z,150242.53
2023-01-11T17:42:26.323Z,150241.28
2023-01-11T17:45:13.066Z,150260.19
2023-01-11T17:47:41.405Z,150224.88
2023-01-11T17:50:23.293Z,150219.84
2023-01-11T17:52:54.713Z,150229.91
2023-01-11T17:55:26.407Z,150217.28
2023-01-11T17:58:19.262Z,150171.91
2023-01-11T18:01:04.515Z,150180.72
2023-01-11T18:03:38.137Z,150166.88
2023-01-11T18:06:40.981Z,150145.41
2023-01-11T18:09:25.895Z,150165.63
2023-01-11T18:11:53.424Z,150135.34
2023-01-11T18:14:27.137Z,150120.19
2023-01-11T18:17:02.149Z,150105.06
2023-01-11T18:19:34.505Z,150111.41
2023-01-11T18:22:00.570Z,150116.41
2023-01-11T18:24:32.173Z,150123.97
2023-01-11T18:27:13.281Z,150127.75
2023-01-11T18:29:39.343Z,150131.56
2023-01-11T18:32:09.837Z,150121.47
2023-01-11T18:34:35.975Z,150132.81
2023-01-11T18:37:05.751Z,150127.75
2023-01-11T18:39:35.047Z,150142.88
2023-01-11T18:42:06.612Z,150158.03
2023-01-11T18:44:34.474Z,150161.78
2023-01-11T18:47:01.622Z,150145.41
2023-01-11T18:49:27.845Z,150154.25
2023-01-11T18:51:53.781Z,150136.59
2023-01-11T18:54:20.473Z,150141.63
2023-01-11T18:56:46.378Z,150140.38
2023-01-11T18:59:12.381Z,150134.06
2023-01-11T19:01:52.769Z,150141.63
2023-01-11T19:04:22.225Z,150136.59
2023-01-11T19:06:48.406Z,150139.09
2023-01-11T19:09:14.541Z,150160.53
2023-01-11T19:11:40.506Z,150135.34
2023-01-11T19:14:06.424Z,150125.22
2023-01-11T19:16:32.358Z,150120.19
2023-01-11T19:18:58.519Z,150122.72
2023-01-11T19:21:24.514Z,150112.66
2023-01-11T19:23:50.684Z,150126.47
2023-01-11T19:26:16.831Z,150134.06
2023-01-11T19:28:42.767Z,150123.97
2023-01-11T19:31:10.600Z,150093.75
2023-01-11T19:33:36.670Z,150116.41
2023-01-11T19:36:07.172Z,150115.16
2023-01-11T19:38:33.793Z,150110.09
2023-01-11T19:41:04.999Z,150116.41
2023-01-11T19:43:30.871Z,150117.69
2023-01-11T19:45:57.531Z,150102.53
2023-01-11T19:48:24.472Z,150097.50
2023-01-11T19:50:50.591Z,150110.09
2023-01-11T19:53:16.816Z,150101.28
2023-01-11T19:55:43.278Z,150087.41
2023-01-11T19:58:09.225Z,150074.78
2023-01-11T20:00:35.152Z,150076.09
2023-01-11T20:03:05.253Z,150045.81
2023-01-11T20:05:34.159Z,150063.47
2023-01-11T20:08:00.050Z,150045.81
2023-01-11T20:10:26.097Z,150054.63
2023-01-11T20:12:52.099Z,150049.59
2023-01-11T20:15:18.176Z,150049.59
2023-01-11T20:17:44.259Z,150062.22
2023-01-11T20:20:10.732Z,150063.47
2023-01-11T20:22:37.154Z,150062.22
2023-01-11T20:25:03.994Z,150043.31
2023-01-11T20:27:30.294Z,150052.09
2023-01-11T20:29:56.171Z,150054.63
2023-01-11T20:32:40.742Z,150052.09
2023-01-11T20:35:08.402Z,150071.00
2023-01-11T20:37:34.282Z,150076.09
2023-01-11T20:40:00.237Z,150081.13
2023-01-11T20:42:26.182Z,150076.09
2023-01-11T20:44:52.040Z,150072.28
2023-01-11T20:47:18.263Z,150071.00
2023-01-11T20:49:44.122Z,150055.88
2023-01-11T20:52:09.980Z,150060.94
2023-01-11T20:54:36.804Z,150054.63
2023-01-11T20:57:04.764Z,150038.22
2023-01-11T20:59:31.604Z,150016.81
2023-01-11T21:01:57.811Z,149990.38
2023-01-11T21:04:24.003Z,150000.41
2023-01-11T21:06:49.918Z,149995.41
2023-01-11T21:09:17.557Z,149971.47
2023-01-11T21:11:43.764Z,149979.00
2023-01-11T21:14:12.676Z,149992.88
2023-01-11T21:16:43.565Z,149995.41
2023-01-11T21:19:11.084Z,149955.06
2023-01-11T21:21:36.966Z,149972.72
2023-01-11T21:24:04.284Z,149975.22
2023-01-11T21:26:31.494Z,149968.94
2023-01-11T21:29:04.061Z,149979.00
2023-01-11T21:31:32.775Z,150005.50
2023-01-11T21:33:59.631Z,149975.22
2023-01-11T21:36:27.155Z,149966.38
2023-01-11T21:38:54.290Z,149968.94
2023-01-11T21:41:43.210Z,149947.47
2023-01-11T21:44:10.879Z,149953.81
2023-01-11T21:46:37.672Z,149982.78
2023-01-11T21:49:03.734Z,149994.13
2023-01-11T21:51:29.802Z,149987.84
2023-01-11T21:53:56.675Z,150018.06
2023-01-11T21:56:23.034Z,149982.78
2023-01-11T21:58:49.822Z,149997.91
2023-01-11T22:01:18.307Z,150006.75
2023-01-11T22:03:44.257Z,149996.66
2023-01-11T22:06:10.449Z,149982.78
2023-01-11T22:08:38.785Z,149961.38
2023-01-11T22:11:05.833Z,149951.31
2023-01-11T22:13:33.314Z,149973.97
2023-01-11T22:16:04.699Z,149972.72
2023-01-11T22:18:31.115Z,149982.78
2023-01-11T22:21:03.170Z,149980.25
2023-01-11T22:23:29.056Z,149973.97
2023-01-11T22:25:54.926Z,149989.09
2023-01-11T22:28:20.843Z,149947.47
2023-01-11T22:30:46.692Z,149951.31
2023-01-11T22:33:12.606Z,149953.81
2023-01-11T22:35:38.555Z,149936.19
2023-01-11T22:38:04.934Z,149932.41
2023-01-11T22:40:30.762Z,149941.19
2023-01-11T22:42:56.610Z,149942.47
2023-01-11T22:45:22.454Z,149923.56
2023-01-11T22:47:48.282Z,149923.56
2023-01-11T22:50:14.496Z,149939.94
2023-01-11T22:52:40.410Z,149973.97
2023-01-11T22:55:06.943Z,149951.31
2023-01-11T22:57:32.977Z,149946.22
2023-01-11T22:59:58.999Z,149958.84
2023-01-11T23:02:24.860Z,149965.13
2023-01-11T23:04:50.706Z,149979.00
2023-01-11T23:07:17.052Z,149944.97
2023-01-11T23:09:42.881Z,149939.94
2023-01-11T23:12:27.046Z,149972.72
2023-01-11T23:14:52.875Z,149951.31
2023-01-11T23:17:19.893Z,149965.13
2023-01-11T23:19:46.631Z,149985.28
2023-01-11T23:22:14.760Z,149960.09
2023-01-11T23:24:40.594Z,149979.00
2023-01-11T23:27:06.606Z,149979.00
2023-01-11T23:29:32.579Z,149979.00
2023-01-11T23:31:58.519Z,149986.59
2023-01-11T23:34:24.422Z,149995.41
2023-01-11T23:36:50.213Z,149999.16
2023-01-11T23:39:18.182Z,149994.13
2023-01-11T23:42:02.596Z,149996.66
2023-01-11T23:44:28.859Z,150000.41
2023-01-11T23:47:13.535Z,150014.28
2023-01-11T23:49:39.452Z,150002.94
2023-01-11T23:52:06.062Z,149989.09
2023-01-11T23:54:33.014Z,150002.94
2023-01-11T23:57:00.430Z,149992.88
2023-01-11T23:59:26.427Z,150002.94
